DAL25 TAPA-TGPY
Flight info
| Callsign | DAL25 |
|---|---|
| Flight time | 0h 54m |
| Altitude | 34000 |
| Route | ANU |
| Aircraft | A319/M-SDE3FGHIRWY/LB1 |
Departure
| Time | 2026-05-05 21:45 |
|---|---|
| Airport | V. C. Bird International Airport (TAPA) |
Arrival
| Time | 2026-05-05 22:40 |
|---|---|
| Airport | Maurice Bishop International Airport (TGPY) |
| Time | Latitude | Longitude | Altitude | Speed | Heading |
|---|---|---|---|---|---|
| 2026-05-05 21:17 | 17.13862 | -61.79333 | 51 ft | 0 kts | 335° |
| 2026-05-05 21:38 | 17.13848 | -61.79326 | 52 ft | 3 kts | 335° |
| 2026-05-05 21:38 | 17.13831 | -61.79318 | 54 ft | 3 kts | 335° |
| 2026-05-05 21:38 | 17.13813 | -61.79310 | 52 ft | 3 kts | 318° |
| 2026-05-05 21:38 | 17.13807 | -61.79294 | 53 ft | 3 kts | 247° |
| 2026-05-05 21:39 | 17.13811 | -61.79284 | 50 ft | 0 kts | 247° |
| 2026-05-05 21:41 | 17.13810 | -61.79286 | 51 ft | 2 kts | 247° |
| 2026-05-05 21:41 | 17.13794 | -61.79305 | 54 ft | 6 kts | 220° |
| 2026-05-05 21:41 | 17.13757 | -61.79343 | 55 ft | 9 kts | 232° |
| 2026-05-05 21:42 | 17.13718 | -61.79407 | 52 ft | 11 kts | 239° |
| 2026-05-05 21:42 | 17.13677 | -61.79479 | 52 ft | 12 kts | 238° |
| 2026-05-05 21:42 | 17.13629 | -61.79554 | 53 ft | 13 kts | 236° |
| 2026-05-05 21:42 | 17.13576 | -61.79638 | 53 ft | 15 kts | 238° |
| 2026-05-05 21:43 | 17.13520 | -61.79732 | 57 ft | 16 kts | 237° |
| 2026-05-05 21:43 | 17.13452 | -61.79815 | 58 ft | 15 kts | 208° |
| 2026-05-05 21:43 | 17.13350 | -61.79851 | 58 ft | 16 kts | 200° |
| 2026-05-05 21:43 | 17.13273 | -61.79934 | 56 ft | 16 kts | 239° |
| 2026-05-05 21:44 | 17.13217 | -61.80030 | 56 ft | 15 kts | 238° |
| 2026-05-05 21:44 | 17.13155 | -61.80110 | 61 ft | 13 kts | 200° |
| 2026-05-05 21:44 | 17.13120 | -61.80142 | 63 ft | 3 kts | 314° |
| 2026-05-05 21:44 | 17.13154 | -61.80140 | 63 ft | 9 kts | 39° |
| 2026-05-05 21:45 | 17.13264 | -61.79962 | 58 ft | 62 kts | 57° |
| 2026-05-05 21:45 | 17.13617 | -61.79368 | 55 ft | 128 kts | 58° |
| 2026-05-05 21:45 | 17.14154 | -61.78447 | 312 ft | 154 kts | 60° |
| 2026-05-05 21:45 | 17.14737 | -61.77483 | 920 ft | 157 kts | 62° |
| 2026-05-05 21:46 | 17.15308 | -61.76512 | 1595 ft | 156 kts | 64° |
| 2026-05-05 21:46 | 17.15470 | -61.75374 | 2023 ft | 172 kts | 105° |
| 2026-05-05 21:46 | 17.14661 | -61.74351 | 2306 ft | 203 kts | 147° |
| 2026-05-05 21:46 | 17.13342 | -61.73628 | 2821 ft | 222 kts | 154° |
| 2026-05-05 21:47 | 17.11792 | -61.73372 | 3622 ft | 236 kts | 188° |
| 2026-05-05 21:47 | 17.10345 | -61.74207 | 4463 ft | 248 kts | 227° |
| 2026-05-05 21:47 | 17.09610 | -61.75871 | 5115 ft | 267 kts | 261° |
| 2026-05-05 21:47 | 17.09390 | -61.77872 | 5628 ft | 286 kts | 257° |
| 2026-05-05 21:48 | 17.08472 | -61.79701 | 6359 ft | 288 kts | 222° |
| 2026-05-05 21:48 | 17.06764 | -61.80715 | 7140 ft | 284 kts | 190° |
| 2026-05-05 21:48 | 17.04806 | -61.80825 | 7962 ft | 283 kts | 173° |
| 2026-05-05 21:48 | 17.02825 | -61.80761 | 8786 ft | 288 kts | 179° |
| 2026-05-05 21:49 | 17.00809 | -61.80865 | 9574 ft | 293 kts | 181° |
| 2026-05-05 21:49 | 16.98760 | -61.81010 | 10276 ft | 300 kts | 183° |
| 2026-05-05 21:49 | 16.96599 | -61.81179 | 10526 ft | 323 kts | 182° |
| 2026-05-05 21:49 | 16.94335 | -61.81359 | 10938 ft | 336 kts | 182° |
| 2026-05-05 21:50 | 16.91981 | -61.81546 | 11572 ft | 342 kts | 183° |
| 2026-05-05 21:50 | 16.89600 | -61.81733 | 12252 ft | 345 kts | 184° |
| 2026-05-05 21:50 | 16.87186 | -61.81918 | 12939 ft | 349 kts | 184° |
| 2026-05-05 21:50 | 16.84752 | -61.82101 | 13602 ft | 353 kts | 184° |
| 2026-05-05 21:51 | 16.82285 | -61.82284 | 14221 ft | 357 kts | 184° |
| 2026-05-05 21:51 | 16.79790 | -61.82467 | 14799 ft | 361 kts | 184° |
| 2026-05-05 21:51 | 16.77275 | -61.82651 | 15375 ft | 365 kts | 184° |
| 2026-05-05 21:51 | 16.74728 | -61.82839 | 15918 ft | 369 kts | 184° |
| 2026-05-05 21:52 | 16.69535 | -61.83225 | 17066 ft | 377 kts | 185° |
| 2026-05-05 21:52 | 16.66900 | -61.83421 | 17602 ft | 382 kts | 184° |
| 2026-05-05 21:52 | 16.64225 | -61.83618 | 18114 ft | 389 kts | 184° |
| 2026-05-05 21:53 | 16.61516 | -61.83819 | 18662 ft | 392 kts | 184° |
| 2026-05-05 21:53 | 16.58794 | -61.84021 | 19222 ft | 393 kts | 184° |
| 2026-05-05 21:53 | 16.56094 | -61.84222 | 19758 ft | 395 kts | 184° |
| 2026-05-05 21:53 | 16.53343 | -61.84427 | 20314 ft | 396 kts | 184° |
| 2026-05-05 21:54 | 16.50586 | -61.84633 | 20911 ft | 397 kts | 184° |
| 2026-05-05 21:54 | 16.47822 | -61.84837 | 21472 ft | 398 kts | 184° |
| 2026-05-05 21:54 | 16.45055 | -61.85040 | 22029 ft | 399 kts | 184° |
| 2026-05-05 21:54 | 16.42275 | -61.85245 | 22575 ft | 401 kts | 184° |
| 2026-05-05 21:55 | 16.39485 | -61.85448 | 23121 ft | 402 kts | 184° |
| 2026-05-05 21:55 | 16.36692 | -61.85649 | 23665 ft | 403 kts | 184° |
| 2026-05-05 21:55 | 16.33881 | -61.85855 | 24047 ft | 406 kts | 183° |
| 2026-05-05 21:55 | 16.31057 | -61.86063 | 24425 ft | 409 kts | 184° |
| 2026-05-05 21:56 | 16.28210 | -61.86276 | 24825 ft | 410 kts | 184° |
| 2026-05-05 21:56 | 16.25351 | -61.86493 | 25188 ft | 413 kts | 184° |
| 2026-05-05 21:56 | 16.22472 | -61.86709 | 25534 ft | 416 kts | 184° |
| 2026-05-05 21:56 | 16.19577 | -61.86923 | 25904 ft | 418 kts | 184° |
| 2026-05-05 21:57 | 16.16667 | -61.87136 | 26269 ft | 420 kts | 184° |
| 2026-05-05 21:57 | 16.13735 | -61.87348 | 26605 ft | 423 kts | 184° |
| 2026-05-05 21:57 | 16.10793 | -61.87559 | 26969 ft | 425 kts | 184° |
| 2026-05-05 21:57 | 16.07835 | -61.87776 | 27311 ft | 427 kts | 184° |
| 2026-05-05 21:58 | 16.04859 | -61.87997 | 27635 ft | 430 kts | 184° |
| 2026-05-05 21:58 | 16.01904 | -61.88218 | 27965 ft | 432 kts | 184° |
| 2026-05-05 21:58 | 15.98858 | -61.88445 | 28311 ft | 434 kts | 184° |
| 2026-05-05 21:58 | 15.95878 | -61.88666 | 28606 ft | 437 kts | 184° |
| 2026-05-05 21:59 | 15.92829 | -61.88890 | 28937 ft | 439 kts | 184° |
| 2026-05-05 21:59 | 15.89774 | -61.89114 | 29260 ft | 441 kts | 184° |
| 2026-05-05 21:59 | 15.86704 | -61.89341 | 29552 ft | 444 kts | 184° |
| 2026-05-05 21:59 | 15.83612 | -61.89567 | 29868 ft | 446 kts | 184° |
| 2026-05-05 22:00 | 15.80543 | -61.89790 | 30167 ft | 448 kts | 184° |
| 2026-05-05 22:00 | 15.77387 | -61.90019 | 30413 ft | 450 kts | 184° |
| 2026-05-05 22:00 | 15.74295 | -61.90244 | 30659 ft | 452 kts | 184° |
| 2026-05-05 22:00 | 15.71145 | -61.90475 | 30895 ft | 455 kts | 184° |
| 2026-05-05 22:01 | 15.67986 | -61.90710 | 31117 ft | 457 kts | 184° |
| 2026-05-05 22:01 | 15.64797 | -61.90947 | 31347 ft | 459 kts | 184° |
| 2026-05-05 22:01 | 15.61599 | -61.91182 | 31578 ft | 462 kts | 184° |
| 2026-05-05 22:01 | 15.58379 | -61.91419 | 31827 ft | 463 kts | 184° |
| 2026-05-05 22:02 | 15.55165 | -61.91655 | 32167 ft | 463 kts | 184° |
| 2026-05-05 22:02 | 15.51948 | -61.91891 | 32513 ft | 462 kts | 184° |
| 2026-05-05 22:02 | 15.48740 | -61.92128 | 32840 ft | 462 kts | 185° |
| 2026-05-05 22:02 | 15.45535 | -61.92364 | 33157 ft | 462 kts | 185° |
| 2026-05-05 22:03 | 15.42317 | -61.92600 | 33498 ft | 462 kts | 185° |
| 2026-05-05 22:03 | 15.39150 | -61.92830 | 33810 ft | 463 kts | 185° |
| 2026-05-05 22:03 | 15.35937 | -61.93063 | 34018 ft | 464 kts | 185° |
| 2026-05-05 22:03 | 15.32747 | -61.93296 | 34061 ft | 453 kts | 185° |
| 2026-05-05 22:04 | 15.29628 | -61.93524 | 34068 ft | 447 kts | 185° |
| 2026-05-05 22:04 | 15.23446 | -61.93974 | 34063 ft | 444 kts | 185° |
| 2026-05-05 22:05 | 15.17293 | -61.94424 | 34062 ft | 444 kts | 185° |
| 2026-05-05 22:05 | 15.11132 | -61.94874 | 34058 ft | 444 kts | 185° |
| 2026-05-05 22:06 | 15.04966 | -61.95323 | 34060 ft | 444 kts | 185° |
| 2026-05-05 22:06 | 14.98796 | -61.95767 | 34057 ft | 444 kts | 185° |
| 2026-05-05 22:07 | 14.92630 | -61.96214 | 34055 ft | 444 kts | 185° |
| 2026-05-05 22:07 | 14.86463 | -61.96663 | 34053 ft | 444 kts | 185° |
| 2026-05-05 22:08 | 14.80298 | -61.97114 | 34053 ft | 444 kts | 184° |
| 2026-05-05 22:08 | 14.74137 | -61.97565 | 34045 ft | 444 kts | 184° |
| 2026-05-05 22:09 | 14.67968 | -61.98009 | 34048 ft | 444 kts | 184° |
| 2026-05-05 22:09 | 14.61803 | -61.98457 | 34046 ft | 444 kts | 184° |
| 2026-05-05 22:10 | 14.55639 | -61.98907 | 34044 ft | 444 kts | 184° |
| 2026-05-05 22:10 | 14.49475 | -61.99356 | 34038 ft | 444 kts | 184° |
| 2026-05-05 22:11 | 14.43353 | -61.99807 | 34039 ft | 444 kts | 184° |
| 2026-05-05 22:11 | 14.37184 | -62.00258 | 34034 ft | 444 kts | 184° |
| 2026-05-05 22:12 | 14.32049 | -62.00632 | 34036 ft | 444 kts | 184° |
| 2026-05-05 22:12 | 14.25887 | -62.01075 | 34027 ft | 444 kts | 184° |
| 2026-05-05 22:13 | 14.19731 | -62.01518 | 34028 ft | 443 kts | 184° |
| 2026-05-05 22:13 | 14.13570 | -62.01957 | 34029 ft | 444 kts | 184° |
| 2026-05-05 22:14 | 14.07405 | -62.02399 | 34026 ft | 444 kts | 184° |
| 2026-05-05 22:14 | 14.01229 | -62.02844 | 34030 ft | 444 kts | 184° |
| 2026-05-05 22:15 | 13.95057 | -62.03295 | 34035 ft | 444 kts | 184° |
| 2026-05-05 22:15 | 13.88890 | -62.03739 | 34030 ft | 444 kts | 184° |
| 2026-05-05 22:16 | 13.82762 | -62.04184 | 34027 ft | 444 kts | 184° |
| 2026-05-05 22:16 | 13.76592 | -62.04632 | 34024 ft | 444 kts | 184° |
| 2026-05-05 22:17 | 13.70418 | -62.05074 | 33287 ft | 447 kts | 184° |
| 2026-05-05 22:17 | 13.67329 | -62.05292 | 32775 ft | 442 kts | 184° |
| 2026-05-05 22:17 | 13.64271 | -62.05510 | 32254 ft | 437 kts | 184° |
| 2026-05-05 22:17 | 13.61252 | -62.05727 | 31739 ft | 433 kts | 184° |
| 2026-05-05 22:18 | 13.58261 | -62.05942 | 31234 ft | 428 kts | 184° |
| 2026-05-05 22:18 | 13.55305 | -62.06157 | 30741 ft | 424 kts | 184° |
| 2026-05-05 22:18 | 13.52377 | -62.06370 | 30258 ft | 420 kts | 184° |
| 2026-05-05 22:18 | 13.49480 | -62.06581 | 29731 ft | 415 kts | 184° |
| 2026-05-05 22:19 | 13.46621 | -62.06789 | 29271 ft | 409 kts | 184° |
| 2026-05-05 22:19 | 13.43800 | -62.06994 | 28825 ft | 404 kts | 184° |
| 2026-05-05 22:19 | 13.41015 | -62.07196 | 28387 ft | 399 kts | 184° |
| 2026-05-05 22:19 | 13.38261 | -62.07395 | 27949 ft | 394 kts | 184° |
| 2026-05-05 22:20 | 13.35537 | -62.07589 | 27515 ft | 390 kts | 184° |
| 2026-05-05 22:20 | 13.32846 | -62.07780 | 27088 ft | 386 kts | 184° |
| 2026-05-05 22:20 | 13.30176 | -62.07971 | 26664 ft | 382 kts | 184° |
| 2026-05-05 22:20 | 13.27542 | -62.08159 | 26232 ft | 378 kts | 184° |
| 2026-05-05 22:21 | 13.24929 | -62.08346 | 25808 ft | 374 kts | 184° |
| 2026-05-05 22:21 | 13.22343 | -62.08530 | 25364 ft | 371 kts | 184° |
| 2026-05-05 22:21 | 13.19778 | -62.08713 | 24917 ft | 368 kts | 184° |
| 2026-05-05 22:21 | 13.17236 | -62.08895 | 24478 ft | 365 kts | 184° |
| 2026-05-05 22:22 | 13.14709 | -62.09076 | 24023 ft | 363 kts | 184° |
| 2026-05-05 22:22 | 13.12203 | -62.09255 | 23569 ft | 361 kts | 184° |
| 2026-05-05 22:22 | 13.09725 | -62.09431 | 23056 ft | 358 kts | 184° |
| 2026-05-05 22:22 | 13.07255 | -62.09609 | 22615 ft | 354 kts | 184° |
| 2026-05-05 22:23 | 13.04811 | -62.09785 | 22188 ft | 350 kts | 184° |
| 2026-05-05 22:23 | 13.02392 | -62.09959 | 21766 ft | 347 kts | 184° |
| 2026-05-05 22:23 | 12.99991 | -62.10129 | 21324 ft | 344 kts | 183° |
| 2026-05-05 22:23 | 12.97608 | -62.10302 | 20909 ft | 342 kts | 183° |
| 2026-05-05 22:24 | 12.95242 | -62.10475 | 20495 ft | 340 kts | 183° |
| 2026-05-05 22:24 | 12.92882 | -62.10645 | 20082 ft | 338 kts | 183° |
| 2026-05-05 22:24 | 12.90538 | -62.10810 | 19672 ft | 337 kts | 183° |
| 2026-05-05 22:24 | 12.88203 | -62.10977 | 19266 ft | 336 kts | 183° |
| 2026-05-05 22:25 | 12.85867 | -62.11144 | 18855 ft | 336 kts | 182° |
| 2026-05-05 22:25 | 12.83539 | -62.11310 | 18456 ft | 335 kts | 183° |
| 2026-05-05 22:25 | 12.81209 | -62.11476 | 18016 ft | 335 kts | 183° |
| 2026-05-05 22:25 | 12.78911 | -62.11641 | 17613 ft | 336 kts | 182° |
| 2026-05-05 22:26 | 12.76582 | -62.11810 | 17210 ft | 335 kts | 182° |
| 2026-05-05 22:26 | 12.74245 | -62.11976 | 16808 ft | 335 kts | 182° |
| 2026-05-05 22:26 | 12.71916 | -62.12142 | 16419 ft | 335 kts | 181° |
| 2026-05-05 22:26 | 12.69587 | -62.12308 | 16027 ft | 335 kts | 181° |
| 2026-05-05 22:27 | 12.67261 | -62.12473 | 15638 ft | 335 kts | 181° |
| 2026-05-05 22:27 | 12.64933 | -62.12639 | 15247 ft | 335 kts | 181° |
| 2026-05-05 22:27 | 12.62610 | -62.12805 | 14856 ft | 335 kts | 181° |
| 2026-05-05 22:27 | 12.60284 | -62.12973 | 14466 ft | 334 kts | 181° |
| 2026-05-05 22:28 | 12.57987 | -62.13143 | 14080 ft | 328 kts | 180° |
| 2026-05-05 22:28 | 12.55727 | -62.13309 | 13684 ft | 323 kts | 180° |
| 2026-05-05 22:28 | 12.53509 | -62.13468 | 13286 ft | 316 kts | 180° |
| 2026-05-05 22:28 | 12.51338 | -62.13624 | 12915 ft | 310 kts | 180° |
| 2026-05-05 22:29 | 12.49204 | -62.13775 | 12533 ft | 305 kts | 180° |
| 2026-05-05 22:29 | 12.47093 | -62.13923 | 12168 ft | 302 kts | 180° |
| 2026-05-05 22:29 | 12.45013 | -62.14069 | 11805 ft | 298 kts | 180° |
| 2026-05-05 22:29 | 12.42986 | -62.14212 | 11445 ft | 294 kts | 180° |
| 2026-05-05 22:30 | 12.40958 | -62.14356 | 11079 ft | 291 kts | 180° |
| 2026-05-05 22:30 | 12.38950 | -62.14498 | 10720 ft | 289 kts | 180° |
| 2026-05-05 22:30 | 12.36943 | -62.14598 | 10349 ft | 287 kts | 174° |
| 2026-05-05 22:30 | 12.34986 | -62.14290 | 9972 ft | 283 kts | 160° |
| 2026-05-05 22:31 | 12.33184 | -62.13531 | 9583 ft | 279 kts | 149° |
| 2026-05-05 22:31 | 12.31450 | -62.12641 | 9191 ft | 278 kts | 150° |
| 2026-05-05 22:31 | 12.29719 | -62.11765 | 8815 ft | 277 kts | 150° |
| 2026-05-05 22:31 | 12.27994 | -62.10898 | 8441 ft | 275 kts | 151° |
| 2026-05-05 22:32 | 12.26278 | -62.10038 | 8046 ft | 274 kts | 151° |
| 2026-05-05 22:32 | 12.24568 | -62.09179 | 7653 ft | 272 kts | 151° |
| 2026-05-05 22:32 | 12.22873 | -62.08325 | 7245 ft | 271 kts | 151° |
| 2026-05-05 22:32 | 12.21183 | -62.07474 | 6847 ft | 270 kts | 152° |
| 2026-05-05 22:33 | 12.19501 | -62.06625 | 6438 ft | 269 kts | 152° |
| 2026-05-05 22:33 | 12.17829 | -62.05781 | 6009 ft | 266 kts | 151° |
| 2026-05-05 22:33 | 12.16185 | -62.04952 | 5601 ft | 261 kts | 151° |
| 2026-05-05 22:33 | 12.14567 | -62.04136 | 5184 ft | 257 kts | 151° |
| 2026-05-05 22:34 | 12.12970 | -62.03330 | 4784 ft | 255 kts | 151° |
| 2026-05-05 22:34 | 12.11379 | -62.02526 | 4364 ft | 255 kts | 151° |
| 2026-05-05 22:34 | 12.09782 | -62.01721 | 3895 ft | 257 kts | 151° |
| 2026-05-05 22:34 | 12.08181 | -62.00915 | 3477 ft | 256 kts | 150° |
| 2026-05-05 22:35 | 12.06588 | -62.00115 | 3049 ft | 255 kts | 150° |
| 2026-05-05 22:35 | 12.05017 | -61.99325 | 2611 ft | 255 kts | 150° |
| 2026-05-05 22:35 | 12.03445 | -61.98536 | 2418 ft | 245 kts | 150° |
| 2026-05-05 22:35 | 12.01991 | -61.97748 | 2346 ft | 228 kts | 140° |
| 2026-05-05 22:36 | 12.00973 | -61.96609 | 2265 ft | 210 kts | 117° |
| 2026-05-05 22:36 | 12.00515 | -61.95254 | 2174 ft | 197 kts | 96° |
| 2026-05-05 22:36 | 12.00482 | -61.93898 | 2087 ft | 187 kts | 90° |
| 2026-05-05 22:36 | 12.00479 | -61.92602 | 2010 ft | 179 kts | 90° |
| 2026-05-05 22:37 | 12.00473 | -61.91348 | 1916 ft | 176 kts | 90° |
| 2026-05-05 22:37 | 12.00470 | -61.90118 | 1880 ft | 171 kts | 91° |
| 2026-05-05 22:37 | 12.00467 | -61.88904 | 1772 ft | 166 kts | 90° |
| 2026-05-05 22:37 | 12.00461 | -61.87791 | 1616 ft | 149 kts | 90° |
| 2026-05-05 22:38 | 12.00454 | -61.86782 | 1431 ft | 136 kts | 92° |
| 2026-05-05 22:38 | 12.00447 | -61.85829 | 1253 ft | 132 kts | 92° |
| 2026-05-05 22:38 | 12.00442 | -61.84913 | 1081 ft | 128 kts | 92° |
| 2026-05-05 22:38 | 12.00437 | -61.84001 | 912 ft | 128 kts | 90° |
| 2026-05-05 22:39 | 12.00432 | -61.83081 | 737 ft | 129 kts | 94° |
| 2026-05-05 22:39 | 12.00427 | -61.82168 | 546 ft | 128 kts | 95° |
| 2026-05-05 22:39 | 12.00445 | -61.81263 | 314 ft | 127 kts | 94° |
| 2026-05-05 22:39 | 12.00413 | -61.80366 | 144 ft | 127 kts | 92° |
| 2026-05-05 22:40 | 12.00407 | -61.79472 | 28 ft | 119 kts | 93° |
| 2026-05-05 22:40 | 12.00391 | -61.78767 | 30 ft | 77 kts | 89° |
| 2026-05-05 22:40 | 12.00404 | -61.78389 | 27 ft | 29 kts | 82° |
| 2026-05-05 22:40 | 12.00412 | -61.78293 | 27 ft | 4 kts | 160° |
| 2026-05-05 22:41 | 12.00406 | -61.78319 | 27 ft | 6 kts | 269° |
| 2026-05-05 22:41 | 12.00408 | -61.78444 | 27 ft | 25 kts | 271° |
| 2026-05-05 22:41 | 12.00410 | -61.78570 | 29 ft | 13 kts | 280° |
| 2026-05-05 22:41 | 12.00488 | -61.78601 | 28 ft | 14 kts | 354° |
| 2026-05-05 22:42 | 12.00574 | -61.78614 | 27 ft | 10 kts | 312° |
| 2026-05-05 22:42 | 12.00627 | -61.78648 | 27 ft | 9 kts | 4° |
| 2026-05-05 22:42 | 12.00669 | -61.78648 | 29 ft | 0 kts | 359° |